createdAt,value
2023-07-28T00:01:19.652Z,2.00
2023-07-28T00:03:46.769Z,1.80
2023-07-28T00:06:14.123Z,2.15
2023-07-28T00:08:41.325Z,2.20
2023-07-28T00:11:15.645Z,1.90
2023-07-28T00:13:43.629Z,2.20
2023-07-28T00:16:11.573Z,2.10
2023-07-28T00:18:38.963Z,2.03
2023-07-28T00:21:09.440Z,2.20
2023-07-28T00:23:36.554Z,1.95
2023-07-28T00:26:03.684Z,2.13
2023-07-28T00:28:30.766Z,2.17
2023-07-28T00:30:57.964Z,1.88
2023-07-28T00:33:25.166Z,1.77
2023-07-28T00:35:52.348Z,1.70
2023-07-28T00:38:19.893Z,2.00
2023-07-28T00:40:46.992Z,2.05
2023-07-28T00:43:14.100Z,1.77
2023-07-28T00:45:41.517Z,1.80
2023-07-28T00:48:13.687Z,1.70
2023-07-28T00:50:46.233Z,1.70
2023-07-28T00:53:13.542Z,1.73
2023-07-28T00:55:40.717Z,1.88
2023-07-28T00:58:07.792Z,1.73
2023-07-28T01:00:34.846Z,2.00
2023-07-28T01:03:02.691Z,1.90
2023-07-28T01:05:57.308Z,1.92
2023-07-28T01:09:03.440Z,2.40
2023-07-28T01:11:32.514Z,2.20
2023-07-28T01:14:00.049Z,1.65
2023-07-28T01:16:30.708Z,2.40
2023-07-28T01:18:59.849Z,2.15
2023-07-28T01:21:31.623Z,2.13
2023-07-28T01:24:17.388Z,1.60
2023-07-28T01:26:46.244Z,1.92
2023-07-28T01:29:16.595Z,2.78
2023-07-28T01:31:43.949Z,1.98
2023-07-28T01:34:11.167Z,2.08
2023-07-28T01:36:38.272Z,1.65
2023-07-28T01:39:05.439Z,2.00
2023-07-28T01:41:32.588Z,2.03
2023-07-28T01:43:59.797Z,2.17
2023-07-28T01:46:26.886Z,2.10
2023-07-28T01:48:54.028Z,1.90
2023-07-28T01:51:21.135Z,2.00
2023-07-28T01:53:48.287Z,1.95
2023-07-28T01:56:15.867Z,1.98
2023-07-28T01:58:42.940Z,1.80
2023-07-28T02:01:10.243Z,1.80
2023-07-28T02:03:37.476Z,1.92
2023-07-28T02:06:04.670Z,2.10
2023-07-28T02:08:31.779Z,1.90
2023-07-28T02:10:58.876Z,2.25
2023-07-28T02:13:25.966Z,1.98
2023-07-28T02:15:53.118Z,1.70
2023-07-28T02:18:20.206Z,1.67
2023-07-28T02:20:50.440Z,1.50
2023-07-28T02:23:17.734Z,1.80
2023-07-28T02:25:44.869Z,1.60
2023-07-28T02:28:13.238Z,1.50
2023-07-28T02:30:40.423Z,1.58
2023-07-28T02:33:07.669Z,1.73
2023-07-28T02:35:34.762Z,1.70
2023-07-28T02:38:01.894Z,1.90
2023-07-28T02:40:29.169Z,1.73
2023-07-28T02:42:56.351Z,1.45
2023-07-28T02:45:23.491Z,1.73
2023-07-28T02:47:50.612Z,1.60
2023-07-28T02:50:18.125Z,1.80
2023-07-28T02:52:45.252Z,1.85
2023-07-28T02:55:12.404Z,1.88
2023-07-28T02:57:39.653Z,1.80
2023-07-28T03:00:09.283Z,1.55
2023-07-28T03:02:36.655Z,1.85
2023-07-28T03:05:03.902Z,2.40
2023-07-28T03:07:31.750Z,1.90
2023-07-28T03:09:59.501Z,1.63
2023-07-28T03:12:26.568Z,1.67
2023-07-28T03:14:53.668Z,2.22
2023-07-28T03:17:21.150Z,1.88
2023-07-28T03:19:48.524Z,2.00
2023-07-28T03:22:15.557Z,2.17
2023-07-28T03:24:43.964Z,2.05
2023-07-28T03:27:11.125Z,2.20
2023-07-28T03:29:38.174Z,2.15
2023-07-28T03:32:05.799Z,1.90
2023-07-28T03:34:32.966Z,1.75
2023-07-28T03:37:00.057Z,2.08
2023-07-28T03:39:27.279Z,2.00
2023-07-28T03:41:54.564Z,2.05
2023-07-28T03:44:21.832Z,2.00
2023-07-28T03:46:49.074Z,2.00
2023-07-28T03:49:16.349Z,1.98
2023-07-28T03:51:43.463Z,2.10
2023-07-28T03:54:10.654Z,2.08
2023-07-28T03:56:37.910Z,2.10
2023-07-28T03:59:05.317Z,2.00
2023-07-28T04:01:32.805Z,1.88
2023-07-28T04:04:01.663Z,2.05
2023-07-28T04:06:46.357Z,1.80
2023-07-28T04:09:15.672Z,1.88
2023-07-28T04:11:43.162Z,1.58
2023-07-28T04:14:11.073Z,1.65
2023-07-28T04:16:38.444Z,1.50
2023-07-28T04:19:05.954Z,2.00
2023-07-28T04:21:33.149Z,2.20
2023-07-28T04:24:00.547Z,2.10
2023-07-28T04:26:27.800Z,2.55
2023-07-28T04:28:54.941Z,1.80
2023-07-28T04:31:22.005Z,2.08
2023-07-28T04:33:49.102Z,2.17
2023-07-28T04:36:16.195Z,2.20
2023-07-28T04:38:43.332Z,2.60
2023-07-28T04:41:10.434Z,2.10
2023-07-28T04:43:37.552Z,2.13
2023-07-28T04:46:04.846Z,2.28
2023-07-28T04:48:32.057Z,2.25
2023-07-28T04:50:59.217Z,2.03
2023-07-28T04:53:26.275Z,2.42
2023-07-28T04:55:53.409Z,2.60
2023-07-28T04:58:20.529Z,2.22
2023-07-28T05:00:47.587Z,2.30
2023-07-28T05:03:14.899Z,2.85
2023-07-28T05:05:45.615Z,2.40
2023-07-28T05:08:13.141Z,2.40
2023-07-28T05:10:40.355Z,2.83
2023-07-28T05:13:07.530Z,2.38
2023-07-28T05:15:34.661Z,2.50
2023-07-28T05:18:01.917Z,2.40
2023-07-28T05:20:29.543Z,2.65
2023-07-28T05:22:56.643Z,2.28
2023-07-28T05:25:23.743Z,2.30
2023-07-28T05:27:50.934Z,2.50
2023-07-28T05:30:18.092Z,2.30
2023-07-28T05:32:45.292Z,2.60
2023-07-28T05:35:12.373Z,2.33
2023-07-28T05:37:39.493Z,2.60
2023-07-28T05:40:07.322Z,2.30
2023-07-28T05:42:34.589Z,2.60
2023-07-28T05:45:01.751Z,2.38
2023-07-28T05:47:29.221Z,2.40
2023-07-28T05:49:56.467Z,2.70
2023-07-28T05:52:26.203Z,2.72
2023-07-28T05:54:53.611Z,2.42
2023-07-28T05:57:20.710Z,2.80
2023-07-28T05:59:48.402Z,2.85
2023-07-28T06:02:15.457Z,2.70
2023-07-28T06:04:42.562Z,2.42
2023-07-28T06:07:09.625Z,2.50
2023-07-28T06:09:36.742Z,2.90
2023-07-28T06:12:03.956Z,2.35
2023-07-28T06:14:31.092Z,2.35
2023-07-28T06:16:58.338Z,2.60
2023-07-28T06:19:25.650Z,2.55
2023-07-28T06:21:53.096Z,2.53
2023-07-28T06:24:20.688Z,2.85
2023-07-28T06:26:47.815Z,2.53
2023-07-28T06:29:14.914Z,2.53
2023-07-28T06:31:42.350Z,2.60
2023-07-28T06:34:09.428Z,2.42
2023-07-28T06:36:36.499Z,2.53
2023-07-28T06:39:03.739Z,2.65
2023-07-28T06:41:30.879Z,2.50
2023-07-28T06:43:57.944Z,2.85
2023-07-28T06:46:25.466Z,2.63
2023-07-28T06:48:52.907Z,3.47
2023-07-28T06:51:19.956Z,2.38
2023-07-28T06:53:47.776Z,2.75
2023-07-28T06:56:14.902Z,2.65
2023-07-28T06:58:42.075Z,2.47
2023-07-28T07:01:12.346Z,2.70
2023-07-28T07:03:39.524Z,2.70
2023-07-28T07:06:06.595Z,2.33
2023-07-28T07:08:34.065Z,2.70
2023-07-28T07:11:01.846Z,2.50
2023-07-28T07:13:29.045Z,2.50
2023-07-28T07:15:56.481Z,2.58
2023-07-28T07:18:23.610Z,2.40
2023-07-28T07:20:50.747Z,2.58
2023-07-28T07:23:17.958Z,2.85
2023-07-28T07:25:45.333Z,2.90
2023-07-28T07:28:12.543Z,2.50
2023-07-28T07:30:41.366Z,2.80
2023-07-28T07:33:08.814Z,2.65
2023-07-28T07:35:39.447Z,2.72
2023-07-28T07:38:10.408Z,2.40
2023-07-28T07:40:38.498Z,2.50
2023-07-28T07:43:05.921Z,2.15
2023-07-28T07:45:33.438Z,2.55
2023-07-28T07:48:01.363Z,2.80
2023-07-28T07:50:28.478Z,2.58
2023-07-28T07:52:55.674Z,2.45
2023-07-28T07:55:22.775Z,2.75
2023-07-28T07:57:49.975Z,2.45
2023-07-28T08:00:17.522Z,2.40
2023-07-28T08:02:46.699Z,2.72
2023-07-28T08:05:14.107Z,2.40
2023-07-28T08:07:42.044Z,2.55
2023-07-28T08:10:09.716Z,2.97
2023-07-28T08:12:37.116Z,2.67
2023-07-28T08:15:04.789Z,2.65
2023-07-28T08:17:31.915Z,2.40
2023-07-28T08:19:59.060Z,2.90
2023-07-28T08:22:26.829Z,2.42
2023-07-28T08:24:54.090Z,2.50
2023-07-28T08:27:21.263Z,2.38
2023-07-28T08:29:48.311Z,3.10
2023-07-28T08:32:15.395Z,2.80
2023-07-28T08:34:42.613Z,3.00
2023-07-28T08:37:10.039Z,3.30
2023-07-28T08:39:37.125Z,3.13
2023-07-28T08:42:05.935Z,3.20
2023-07-28T08:44:34.507Z,3.22
2023-07-28T08:47:03.336Z,3.47
2023-07-28T08:49:32.855Z,3.00
2023-07-28T08:52:01.571Z,3.20
2023-07-28T08:54:29.290Z,3.20
2023-07-28T08:56:56.613Z,3.30
2023-07-28T08:59:28.528Z,3.03
2023-07-28T09:01:57.536Z,3.10
2023-07-28T09:04:25.184Z,2.58
2023-07-28T09:06:52.799Z,3.60
2023-07-28T09:09:24.696Z,3.10
2023-07-28T09:11:55.113Z,3.15
2023-07-28T09:14:25.601Z,3.35
2023-07-28T09:16:54.310Z,3.20
2023-07-28T09:19:23.317Z,3.05
2023-07-28T09:22:01.339Z,2.92
2023-07-28T09:24:35.608Z,2.95
2023-07-28T09:27:03.584Z,2.92
2023-07-28T09:29:30.903Z,2.95
2023-07-28T09:32:06.193Z,2.90
2023-07-28T09:34:33.882Z,3.00
2023-07-28T09:37:02.123Z,3.13
2023-07-28T09:39:30.372Z,2.97
2023-07-28T09:42:01.051Z,2.60
2023-07-28T09:44:28.266Z,2.80
2023-07-28T09:46:58.380Z,2.80
2023-07-28T09:49:39.465Z,2.60
2023-07-28T09:52:12.101Z,2.80
2023-07-28T09:54:44.593Z,2.42
2023-07-28T09:57:18.697Z,2.65
2023-07-28T09:59:48.292Z,2.88
2023-07-28T10:02:16.294Z,3.10
2023-07-28T10:04:43.793Z,3.22
2023-07-28T10:07:11.791Z,3.20
2023-07-28T10:09:39.833Z,3.40
2023-07-28T10:12:08.235Z,2.95
2023-07-28T10:14:39.246Z,3.08
2023-07-28T10:17:07.359Z,3.15
2023-07-28T10:19:41.332Z,3.03
2023-07-28T10:22:10.393Z,3.75
2023-07-28T10:24:56.955Z,3.40
2023-07-28T10:27:53.551Z,3.13
2023-07-28T10:30:21.787Z,3.05
2023-07-28T10:32:54.296Z,3.33
2023-07-28T10:35:28.590Z,2.85
2023-07-28T10:37:57.739Z,2.97
2023-07-28T10:40:35.546Z,3.00
2023-07-28T10:43:04.517Z,3.35
2023-07-28T10:45:33.538Z,2.97
2023-07-28T10:48:02.218Z,2.90
2023-07-28T10:50:33.219Z,3.28
2023-07-28T10:53:00.422Z,2.83
2023-07-28T10:55:29.171Z,2.80
2023-07-28T10:57:59.930Z,2.90
2023-07-28T11:00:27.107Z,2.85
2023-07-28T11:02:55.920Z,3.00
2023-07-28T11:05:25.180Z,2.92
2023-07-28T11:07:55.784Z,3.25
2023-07-28T11:10:23.191Z,2.90
2023-07-28T11:12:52.663Z,2.97
2023-07-28T11:15:21.215Z,3.15
2023-07-28T11:17:51.106Z,2.95
2023-07-28T11:20:23.285Z,2.90
2023-07-28T11:22:58.657Z,3.15
2023-07-28T11:25:27.931Z,2.95
2023-07-28T11:27:56.409Z,3.38
2023-07-28T11:30:24.513Z,3.20
2023-07-28T11:32:53.530Z,2.78
2023-07-28T11:35:23.647Z,2.92
2023-07-28T11:37:53.451Z,2.80
2023-07-28T11:40:22.824Z,2.90
2023-07-28T11:42:53.747Z,3.08
2023-07-28T11:45:23.624Z,2.45
2023-07-28T11:48:03.790Z,2.70
2023-07-28T11:50:37.772Z,3.05
2023-07-28T11:53:05.743Z,2.80
2023-07-28T11:55:33.476Z,2.78
2023-07-28T11:58:03.141Z,2.67
2023-07-28T12:00:37.986Z,2.60
2023-07-28T12:03:14.076Z,2.92
2023-07-28T12:08:14.009Z,2.55
2023-07-28T12:25:59.936Z,2.88
2023-07-28T12:28:27.489Z,2.78
2023-07-28T12:30:57.628Z,2.67
2023-07-28T12:33:38.934Z,2.78
2023-07-28T12:41:10.495Z,2.80
2023-07-28T12:48:48.190Z,3.00
2023-07-28T12:51:30.870Z,2.70
2023-07-28T12:53:58.486Z,2.80
2023-07-28T13:01:25.709Z,2.50
2023-07-28T13:03:52.982Z,2.60
2023-07-28T13:06:20.984Z,2.60
2023-07-28T13:11:18.413Z,2.40
2023-07-28T13:13:45.610Z,2.58
2023-07-28T13:16:13.486Z,2.50
2023-07-28T13:18:41.269Z,2.33
2023-07-28T13:21:08.342Z,2.90
2023-07-28T13:23:35.719Z,2.70
2023-07-28T13:26:05.710Z,2.58
2023-07-28T13:28:33.296Z,2.88
2023-07-28T13:31:00.415Z,2.88
2023-07-28T13:33:28.336Z,2.83
2023-07-28T13:35:55.537Z,2.55
2023-07-28T13:38:22.642Z,3.00
2023-07-28T13:40:49.722Z,2.80
2023-07-28T13:43:17.836Z,2.70
2023-07-28T13:45:45.353Z,2.83
2023-07-28T13:50:43.446Z,2.40
2023-07-28T13:55:41.809Z,2.35
2023-07-28T13:58:09.096Z,2.30
2023-07-28T14:00:36.254Z,2.67
2023-07-28T14:03:03.971Z,2.35
2023-07-28T14:05:31.138Z,2.40
2023-07-28T14:07:58.196Z,2.47
2023-07-28T14:10:26.063Z,2.42
2023-07-28T14:12:53.204Z,2.10
2023-07-28T14:15:20.431Z,2.20
2023-07-28T14:17:47.645Z,2.22
2023-07-28T14:20:14.831Z,2.45
2023-07-28T14:22:42.002Z,2.72
2023-07-28T14:25:09.389Z,2.42
2023-07-28T14:27:36.470Z,2.85
2023-07-28T14:30:03.907Z,2.60
2023-07-28T14:32:31.084Z,2.67
2023-07-28T14:34:58.184Z,2.50
2023-07-28T14:37:25.357Z,2.70
2023-07-28T14:39:52.531Z,2.38
2023-07-28T14:42:19.610Z,2.85
2023-07-28T14:44:46.757Z,2.50
2023-07-28T14:47:13.869Z,3.00
2023-07-28T14:49:41.049Z,2.85
2023-07-28T14:52:08.515Z,2.90
2023-07-28T14:54:35.570Z,2.65
2023-07-28T14:57:02.740Z,3.03
2023-07-28T14:59:29.820Z,2.60
2023-07-28T15:01:56.962Z,2.55
2023-07-28T15:04:24.190Z,2.80
2023-07-28T15:06:51.237Z,2.85
2023-07-28T15:09:23.052Z,2.60
2023-07-28T15:11:50.402Z,2.63
2023-07-28T15:14:18.147Z,2.90
2023-07-28T15:16:45.226Z,2.65
2023-07-28T15:19:12.440Z,2.75
2023-07-28T15:21:39.495Z,2.53
2023-07-28T15:24:06.615Z,2.85
2023-07-28T15:26:37.043Z,2.67
2023-07-28T15:29:04.418Z,3.17
2023-07-28T15:31:31.568Z,3.00
2023-07-28T15:33:58.672Z,3.00
2023-07-28T15:36:25.791Z,2.72
2023-07-28T15:38:52.853Z,2.63
2023-07-28T15:41:20.066Z,2.60
2023-07-28T15:43:47.146Z,3.15
2023-07-28T15:46:14.422Z,3.17
2023-07-28T15:48:43.394Z,2.80
2023-07-28T15:51:11.864Z,3.33
2023-07-28T15:53:38.964Z,2.92
2023-07-28T15:56:06.506Z,2.55
2023-07-28T15:58:34.295Z,2.80
2023-07-28T16:01:02.314Z,3.22
2023-07-28T16:03:29.390Z,3.17
2023-07-28T16:05:56.559Z,2.80
2023-07-28T16:08:23.647Z,3.05
2023-07-28T16:10:50.699Z,3.05
2023-07-28T16:13:17.842Z,2.70
2023-07-28T16:15:44.980Z,2.97
2023-07-28T16:18:12.434Z,3.10
2023-07-28T16:20:39.568Z,3.08
2023-07-28T16:23:06.634Z,3.00
2023-07-28T16:25:33.701Z,3.10
2023-07-28T16:28:00.903Z,2.58
2023-07-28T16:30:28.090Z,3.00
2023-07-28T16:32:55.270Z,2.60
2023-07-28T16:35:22.419Z,2.88
2023-07-28T16:37:49.575Z,3.10
2023-07-28T16:40:16.658Z,2.88
2023-07-28T16:42:45.575Z,2.85
2023-07-28T16:45:14.955Z,2.90
2023-07-28T16:47:42.069Z,2.83
2023-07-28T16:50:09.473Z,2.50
2023-07-28T16:52:36.651Z,2.72
2023-07-28T16:55:04.229Z,2.67
2023-07-28T16:57:31.440Z,2.90
2023-07-28T16:59:58.629Z,3.10
2023-07-28T17:02:25.772Z,2.95
2023-07-28T17:04:53.729Z,3.00
2023-07-28T17:07:21.298Z,3.65
2023-07-28T17:09:48.422Z,3.22
2023-07-28T17:12:15.569Z,3.35
2023-07-28T17:14:42.764Z,3.00
2023-07-28T17:17:09.937Z,3.00
2023-07-28T17:19:37.050Z,3.42
2023-07-28T17:22:04.486Z,3.17
2023-07-28T17:24:32.511Z,3.20
2023-07-28T17:26:59.689Z,3.70
2023-07-28T17:29:26.949Z,2.75
2023-07-28T17:31:54.049Z,3.13
2023-07-28T17:34:21.099Z,3.20
2023-07-28T17:36:48.290Z,3.08
2023-07-28T17:39:15.348Z,2.80
2023-07-28T17:41:42.524Z,3.08
2023-07-28T17:44:09.870Z,2.50
2023-07-28T17:46:37.054Z,2.78
2023-07-28T17:49:04.157Z,2.95
2023-07-28T17:51:31.301Z,2.80
2023-07-28T17:53:58.404Z,2.80
2023-07-28T17:56:25.489Z,3.17
2023-07-28T17:58:52.537Z,3.00
2023-07-28T18:01:19.724Z,2.85
2023-07-28T18:03:47.014Z,3.03
2023-07-28T18:06:14.215Z,3.30
2023-07-28T18:08:41.274Z,3.22
2023-07-28T18:11:08.338Z,3.15
2023-07-28T18:13:35.461Z,3.28
2023-07-28T18:16:02.499Z,3.08
2023-07-28T18:18:29.564Z,3.30
2023-07-28T18:20:56.721Z,2.80
2023-07-28T18:23:23.912Z,2.80
2023-07-28T18:25:51.021Z,3.10
2023-07-28T18:28:18.386Z,2.75
2023-07-28T18:30:45.578Z,2.90
2023-07-28T18:33:12.774Z,3.30
2023-07-28T18:35:39.997Z,3.40
2023-07-28T18:38:07.100Z,3.00
2023-07-28T18:40:34.317Z,3.13
2023-07-28T18:43:01.479Z,2.78
2023-07-28T18:45:28.535Z,2.80
2023-07-28T18:47:55.674Z,2.80
2023-07-28T18:50:22.927Z,3.42
2023-07-28T18:52:50.074Z,2.85
2023-07-28T18:55:17.571Z,2.95
2023-07-28T18:57:44.922Z,2.63
2023-07-28T19:00:14.437Z,3.40
2023-07-28T19:02:42.152Z,2.97
2023-07-28T19:05:10.758Z,2.92
2023-07-28T19:07:37.873Z,3.13
2023-07-28T19:10:05.585Z,2.90
2023-07-28T19:12:32.862Z,2.50
2023-07-28T19:14:59.971Z,2.83
2023-07-28T19:17:27.220Z,3.33
2023-07-28T19:19:54.457Z,2.90
2023-07-28T19:22:21.523Z,2.92
2023-07-28T19:24:48.676Z,2.47
2023-07-28T19:27:15.887Z,2.55
2023-07-28T19:29:43.442Z,3.17
2023-07-28T19:32:10.783Z,2.80
2023-07-28T19:34:37.907Z,2.90
2023-07-28T19:37:05.142Z,3.33
2023-07-28T19:39:32.291Z,3.05
2023-07-28T19:41:59.485Z,2.65
2023-07-28T19:44:39.908Z,2.67
2023-07-28T19:47:09.394Z,3.00
2023-07-28T19:49:36.562Z,2.90
2023-07-28T19:52:03.797Z,2.80
2023-07-28T19:54:31.493Z,3.20
2023-07-28T19:56:58.583Z,2.83
2023-07-28T19:59:26.397Z,2.58
2023-07-28T20:01:53.464Z,2.55
2023-07-28T20:04:20.474Z,3.00
2023-07-28T20:06:47.616Z,2.90
2023-07-28T20:09:14.704Z,2.95
2023-07-28T20:11:41.862Z,3.20
2023-07-28T20:14:09.016Z,2.83
2023-07-28T20:16:36.492Z,2.90
2023-07-28T20:19:03.714Z,2.70
2023-07-28T20:21:31.269Z,2.72
2023-07-28T20:23:58.324Z,2.65
2023-07-28T20:26:25.472Z,3.17
2023-07-28T20:28:53.190Z,3.28
2023-07-28T20:31:22.505Z,2.90
2023-07-28T20:33:50.032Z,2.75
2023-07-28T20:36:17.233Z,2.72
2023-07-28T20:38:44.249Z,3.13
2023-07-28T20:41:11.335Z,2.90
2023-07-28T20:43:38.450Z,2.78
2023-07-28T20:46:05.534Z,3.42
2023-07-28T20:48:32.688Z,3.08
2023-07-28T20:51:00.073Z,3.20
2023-07-28T20:53:29.250Z,3.20
2023-07-28T20:55:56.360Z,2.80
2023-07-28T20:58:23.573Z,3.28
2023-07-28T21:00:50.758Z,2.90
2023-07-28T21:03:18.086Z,3.00
2023-07-28T21:05:45.283Z,3.13
2023-07-28T21:08:12.375Z,3.65
2023-07-28T21:10:39.505Z,3.35
2023-07-28T21:13:09.880Z,3.20
2023-07-28T21:15:37.296Z,3.17
2023-07-28T21:18:04.612Z,3.10
2023-07-28T21:20:31.819Z,3.65
2023-07-28T21:22:59.002Z,3.38
2023-07-28T21:25:26.125Z,3.35
2023-07-28T21:27:53.780Z,3.20
2023-07-28T21:30:21.019Z,3.60
2023-07-28T21:32:48.124Z,3.78
2023-07-28T21:35:15.216Z,3.20
2023-07-28T21:37:42.363Z,2.42
2023-07-28T21:40:10.478Z,2.78
2023-07-28T21:42:37.621Z,2.35
2023-07-28T21:45:05.238Z,3.00
2023-07-28T21:47:32.373Z,3.08
2023-07-28T21:49:59.573Z,2.60
2023-07-28T21:52:26.690Z,2.67
2023-07-28T21:54:53.892Z,2.80
2023-07-28T21:57:21.012Z,2.80
2023-07-28T21:59:48.408Z,2.60
2023-07-28T22:02:17.487Z,2.65
2023-07-28T22:04:44.739Z,2.72
2023-07-28T22:07:11.855Z,2.83
2023-07-28T22:09:38.946Z,3.28
2023-07-28T22:12:06.559Z,2.95
2023-07-28T22:14:33.865Z,2.63
2023-07-28T22:17:00.950Z,3.00
2023-07-28T22:19:28.087Z,3.08
2023-07-28T22:21:55.141Z,3.05
2023-07-28T22:24:22.204Z,3.20
2023-07-28T22:26:49.282Z,3.10
2023-07-28T22:29:16.353Z,2.67
2023-07-28T22:31:43.816Z,2.97
2023-07-28T22:34:10.976Z,2.90
2023-07-28T22:36:38.452Z,3.25
2023-07-28T22:39:05.875Z,3.22
2023-07-28T22:41:32.967Z,2.47
2023-07-28T22:44:00.513Z,3.22
2023-07-28T22:46:27.569Z,2.72
2023-07-28T22:48:54.628Z,2.97
2023-07-28T22:51:21.750Z,2.88
2023-07-28T22:53:48.772Z,2.60
2023-07-28T22:56:15.896Z,3.80
2023-07-28T22:58:42.981Z,2.80
2023-07-28T23:01:10.175Z,3.22
2023-07-28T23:03:37.401Z,3.00
2023-07-28T23:06:04.525Z,2.90
2023-07-28T23:08:31.614Z,3.22
2023-07-28T23:10:59.296Z,2.83
2023-07-28T23:13:26.394Z,2.55
2023-07-28T23:15:59.351Z,2.58
2023-07-28T23:18:26.528Z,2.55
2023-07-28T23:20:53.564Z,2.83
2023-07-28T23:23:20.701Z,3.05
2023-07-28T23:25:47.815Z,2.90
2023-07-28T23:28:15.054Z,2.50
2023-07-28T23:30:42.443Z,2.60
2023-07-28T23:33:09.548Z,2.80
2023-07-28T23:35:36.708Z,2.40
2023-07-28T23:38:03.938Z,2.45
2023-07-28T23:40:30.992Z,2.38
2023-07-28T23:42:57.992Z,2.67
2023-07-28T23:45:25.153Z,2.53
2023-07-28T23:47:52.557Z,2.50
2023-07-28T23:50:19.789Z,2.60
2023-07-28T23:52:46.836Z,2.80
2023-07-28T23:55:14.035Z,2.70
2023-07-28T23:57:41.508Z,2.45
